createdAt,value
2018-10-11T00:01:24.893Z,20.08
2018-10-11T00:03:53.683Z,18.10
2018-10-11T00:06:22.013Z,17.37
2018-10-11T00:08:50.497Z,20.92
2018-10-11T00:11:18.762Z,19.42
2018-10-11T00:13:47.245Z,20.57
2018-10-11T00:16:15.503Z,20.95
2018-10-11T00:18:44.099Z,19.52
2018-10-11T00:21:12.339Z,22.95
2018-10-11T00:23:41.251Z,18.75
2018-10-11T00:26:09.570Z,19.48
2018-10-11T00:28:37.890Z,19.07
2018-10-11T00:31:06.156Z,19.62
2018-10-11T00:33:34.413Z,24.12
2018-10-11T00:36:03.387Z,20.82
2018-10-11T00:38:31.750Z,21.70
2018-10-11T00:41:00.283Z,20.52
2018-10-11T00:43:28.754Z,20.90
2018-10-11T00:45:57.334Z,22.15
2018-10-11T00:48:25.626Z,21.20
2018-10-11T00:50:53.878Z,21.65
2018-10-11T00:53:22.148Z,24.60
2018-10-11T00:55:50.394Z,23.30
2018-10-11T00:58:18.625Z,26.73
2018-10-11T01:00:46.874Z,22.20
2018-10-11T01:03:15.108Z,23.02
2018-10-11T01:05:43.403Z,23.80
2018-10-11T01:08:11.621Z,23.20
2018-10-11T01:10:39.929Z,24.43
2018-10-11T01:13:08.185Z,23.47
2018-10-11T01:15:36.451Z,22.32
2018-10-11T01:18:04.731Z,22.85
2018-10-11T01:20:33.105Z,25.57
2018-10-11T01:23:01.358Z,21.40
2018-10-11T01:25:30.690Z,23.70
2018-10-11T01:27:58.974Z,26.25
2018-10-11T01:30:27.256Z,24.75
2018-10-11T01:32:55.521Z,23.42
2018-10-11T01:35:24.634Z,23.38
2018-10-11T01:37:52.885Z,23.77
2018-10-11T01:40:21.212Z,24.92
2018-10-11T01:43:01.502Z,26.70
2018-10-11T01:45:29.737Z,23.95
2018-10-11T01:47:58.341Z,24.43
2018-10-11T01:50:26.696Z,22.95
2018-10-11T01:52:55.642Z,26.40
2018-10-11T01:55:24.293Z,22.55
2018-10-11T01:57:52.544Z,29.92
2018-10-11T02:00:20.805Z,23.38
2018-10-11T02:03:02.422Z,22.58
2018-10-11T02:05:38.462Z,26.57
2018-10-11T02:08:07.054Z,23.40
2018-10-11T02:10:35.382Z,25.65
2018-10-11T02:13:04.114Z,25.12
2018-10-11T02:15:32.401Z,23.80
2018-10-11T02:18:01.326Z,27.07
2018-10-11T02:20:29.685Z,25.95
2018-10-11T02:22:58.181Z,25.40
2018-10-11T02:25:26.419Z,25.55
2018-10-11T02:27:54.682Z,26.50
2018-10-11T02:30:22.954Z,22.98
2018-10-11T02:32:51.292Z,29.57
2018-10-11T02:35:19.559Z,30.92
2018-10-11T02:37:48.080Z,25.95
2018-10-11T02:40:16.312Z,23.55
2018-10-11T02:42:44.561Z,27.20
2018-10-11T02:45:12.843Z,24.45
2018-10-11T02:47:41.231Z,26.00
2018-10-11T02:50:09.569Z,24.23
2018-10-11T02:52:37.838Z,29.23
2018-10-11T02:55:06.154Z,24.45
2018-10-11T02:57:45.606Z,23.70
2018-10-11T03:00:13.862Z,27.65
2018-10-11T03:02:43.953Z,24.35
2018-10-11T03:05:14.143Z,27.32
2018-10-11T03:07:42.892Z,23.22
2018-10-11T03:10:11.186Z,25.70
2018-10-11T03:12:39.458Z,25.25
2018-10-11T03:15:07.939Z,26.68
2018-10-11T03:17:36.345Z,27.32
2018-10-11T03:20:05.183Z,30.57
2018-10-11T03:22:33.417Z,26.12
2018-10-11T03:25:01.687Z,26.85
2018-10-11T03:27:30.027Z,27.48
2018-10-11T03:29:58.302Z,24.47
2018-10-11T03:32:26.566Z,31.73
2018-10-11T03:34:55.159Z,29.95
2018-10-11T03:37:23.450Z,28.98
2018-10-11T03:39:51.736Z,30.97
2018-10-11T03:42:20.671Z,28.77
2018-10-11T03:44:48.927Z,27.90
2018-10-11T03:47:17.560Z,30.48
2018-10-11T03:50:05.860Z,29.02
2018-10-11T03:52:34.749Z,26.23
2018-10-11T03:55:03.056Z,31.20
2018-10-11T03:57:31.303Z,28.02
2018-10-11T04:00:32.629Z,29.77
2018-10-11T04:03:08.220Z,29.23
2018-10-11T04:05:36.867Z,28.23
2018-10-11T04:08:05.713Z,28.05
2018-10-11T04:10:33.947Z,24.63
2018-10-11T04:13:02.220Z,30.12
2018-10-11T04:15:30.531Z,30.32
2018-10-11T04:17:58.799Z,26.87
2018-10-11T04:20:27.029Z,28.30
2018-10-11T04:22:55.269Z,32.58
2018-10-11T04:25:23.891Z,28.55
2018-10-11T04:27:52.188Z,26.25
2018-10-11T04:30:20.444Z,28.07
2018-10-11T04:32:48.698Z,28.00
2018-10-11T04:35:17.524Z,30.37
2018-10-11T04:37:45.875Z,27.20
2018-10-11T04:40:14.143Z,29.45
2018-10-11T04:42:42.446Z,27.42
2018-10-11T04:45:11.199Z,34.30
2018-10-11T04:47:39.546Z,26.48
2018-10-11T04:50:08.185Z,35.95
2018-10-11T04:52:36.498Z,28.38
2018-10-11T04:55:08.032Z,28.20
2018-10-11T04:57:36.504Z,27.48
2018-10-11T05:00:04.781Z,25.57
2018-10-11T05:02:33.104Z,29.27
2018-10-11T05:05:01.438Z,26.70
2018-10-11T05:07:29.795Z,27.55
2018-10-11T05:09:58.078Z,27.00
2018-10-11T05:12:27.271Z,26.48
2018-10-11T05:14:55.637Z,29.55
2018-10-11T05:17:26.495Z,28.87
2018-10-11T05:19:55.168Z,29.02
2018-10-11T05:22:27.490Z,29.80
2018-10-11T05:25:03.881Z,24.98
2018-10-11T05:27:33.631Z,28.12
2018-10-11T05:30:02.036Z,30.85
2018-10-11T05:32:30.894Z,28.87
2018-10-11T05:35:00.914Z,24.12
2018-10-11T05:37:29.441Z,26.50
2018-10-11T05:39:58.890Z,28.67
2018-10-11T05:42:27.400Z,33.40
2018-10-11T05:45:11.639Z,29.07
2018-10-11T05:51:06.814Z,28.20
2018-10-11T05:53:35.122Z,27.00
2018-10-11T05:56:03.381Z,25.92
2018-10-11T05:58:31.645Z,25.23
2018-10-11T06:00:59.907Z,27.35
2018-10-11T06:03:28.232Z,27.62
2018-10-11T06:05:56.495Z,24.35
2018-10-11T06:08:24.767Z,30.27
2018-10-11T06:10:53.041Z,26.48
2018-10-11T06:13:21.339Z,27.40
2018-10-11T06:15:49.604Z,28.15
2018-10-11T06:18:17.922Z,27.87
2018-10-11T06:20:46.163Z,23.90
2018-10-11T06:23:14.412Z,26.35
2018-10-11T06:25:42.707Z,27.15
2018-10-11T06:28:10.955Z,26.07
2018-10-11T06:30:39.225Z,29.80
2018-10-11T06:33:07.485Z,26.35
2018-10-11T06:35:36.197Z,25.72
2018-10-11T06:38:04.488Z,25.20
2018-10-11T06:40:33.794Z,19.92
2018-10-11T06:43:02.058Z,20.65
2018-10-11T06:45:30.308Z,17.02
2018-10-11T06:48:01.086Z,19.23
2018-10-11T06:50:29.456Z,19.05
2018-10-11T06:52:57.687Z,17.70
2018-10-11T06:55:25.981Z,19.77
2018-10-11T06:57:54.247Z,22.82
2018-10-11T07:00:22.511Z,21.10
2018-10-11T07:02:50.818Z,19.65
2018-10-11T07:05:19.046Z,21.00
2018-10-11T07:07:47.313Z,21.80
2018-10-11T07:10:15.741Z,18.95
2018-10-11T07:12:44.231Z,20.92
2018-10-11T07:15:12.632Z,21.57
2018-10-11T07:17:40.891Z,19.48
2018-10-11T07:20:09.222Z,19.40
2018-10-11T07:22:37.474Z,18.07
2018-10-11T07:25:05.741Z,16.10
2018-10-11T07:27:33.982Z,15.23
2018-10-11T07:30:02.293Z,17.07
2018-10-11T07:32:30.527Z,15.38
2018-10-11T07:34:58.830Z,18.05
2018-10-11T07:37:27.191Z,12.90
2018-10-11T07:39:55.752Z,14.05
2018-10-11T07:42:23.994Z,13.70
2018-10-11T07:44:52.266Z,14.03
2018-10-11T07:47:20.534Z,16.32
2018-10-11T07:49:48.797Z,14.87
2018-10-11T07:52:17.081Z,15.45
2018-10-11T07:54:45.455Z,14.15
2018-10-11T07:57:13.725Z,15.38
2018-10-11T07:59:41.967Z,13.00
2018-10-11T08:02:10.193Z,15.20
2018-10-11T08:04:38.814Z,14.83
2018-10-11T08:07:07.671Z,15.25
2018-10-11T08:09:35.930Z,16.40
2018-10-11T08:12:04.436Z,13.83
2018-10-11T08:14:32.494Z,13.50
2018-10-11T08:17:00.905Z,14.15
2018-10-11T08:19:29.639Z,16.12
2018-10-11T08:21:57.614Z,14.63
2018-10-11T08:24:25.973Z,13.50
2018-10-11T08:26:54.352Z,12.95
2018-10-11T08:29:22.427Z,14.35
2018-10-11T08:31:50.683Z,12.58
2018-10-11T08:34:18.915Z,15.20
2018-10-11T08:36:47.148Z,11.93
2018-10-11T08:39:15.402Z,13.90
2018-10-11T08:41:43.664Z,13.08
2018-10-11T08:44:13.463Z,13.78
2018-10-11T08:46:41.974Z,13.93
2018-10-11T08:49:10.306Z,12.55
2018-10-11T08:51:38.527Z,11.75
2018-10-11T08:54:12.158Z,12.37
2018-10-11T08:56:40.385Z,13.00
2018-10-11T08:59:08.884Z,14.03
2018-10-11T09:01:37.063Z,12.60
2018-10-11T09:04:05.468Z,11.95
2018-10-11T09:06:33.570Z,9.85
2018-10-11T09:09:01.824Z,12.78
2018-10-11T09:11:30.088Z,11.25
2018-10-11T09:13:58.591Z,11.57
2018-10-11T09:16:26.637Z,9.35
2018-10-11T09:18:54.871Z,10.10
2018-10-11T09:21:23.104Z,11.78
2018-10-11T09:23:51.349Z,11.25
2018-10-11T09:26:19.563Z,10.50
2018-10-11T09:28:47.814Z,10.55
2018-10-11T09:31:16.474Z,9.50
2018-10-11T09:33:44.689Z,8.30
2018-10-11T09:36:12.931Z,8.43
2018-10-11T09:38:41.192Z,10.85
2018-10-11T09:41:09.438Z,11.22
2018-10-11T09:43:37.706Z,12.85
2018-10-11T09:46:05.986Z,14.65
2018-10-11T09:48:34.236Z,10.80
2018-10-11T09:51:02.453Z,11.43
2018-10-11T09:53:30.967Z,16.42
2018-10-11T09:55:59.336Z,14.60
2018-10-11T09:58:27.651Z,13.80
2018-10-11T10:01:58.567Z,12.90
2018-10-11T10:04:26.810Z,14.70
2018-10-11T10:06:55.045Z,11.20
2018-10-11T10:09:23.322Z,14.85
2018-10-11T10:11:51.578Z,16.62
2018-10-11T10:14:19.833Z,12.85
2018-10-11T10:16:48.069Z,14.85
2018-10-11T10:19:16.606Z,11.78
2018-10-11T10:21:44.973Z,11.90
2018-10-11T10:24:13.126Z,11.83
2018-10-11T10:26:41.433Z,11.53
2018-10-11T10:29:09.713Z,11.65
2018-10-11T10:31:37.956Z,11.55
2018-10-11T10:34:06.284Z,14.05
2018-10-11T10:36:34.459Z,9.90
2018-10-11T10:39:02.817Z,9.50
2018-10-11T10:41:31.192Z,9.98
2018-10-11T10:43:59.448Z,8.63
2018-10-11T10:46:27.854Z,7.47
2018-10-11T10:48:56.458Z,8.78
2018-10-11T10:51:24.685Z,9.08
2018-10-11T10:53:52.963Z,8.83
2018-10-11T10:56:21.217Z,8.35
2018-10-11T10:58:49.492Z,8.58
2018-10-11T11:01:17.738Z,8.73
2018-10-11T11:03:45.986Z,10.75
2018-10-11T11:06:14.217Z,7.37
2018-10-11T11:08:42.521Z,7.90
2018-10-11T11:11:10.983Z,7.20
2018-10-11T11:13:39.277Z,7.85
2018-10-11T11:16:07.670Z,6.35
2018-10-11T11:18:35.972Z,8.43
2018-10-11T11:21:04.210Z,6.72
2018-10-11T11:23:32.457Z,7.28
2018-10-11T11:26:00.679Z,6.92
2018-10-11T11:28:28.901Z,8.20
2018-10-11T11:30:57.194Z,7.70
2018-10-11T11:33:25.400Z,6.83
2018-10-11T11:35:53.643Z,7.20
2018-10-11T11:38:21.904Z,5.90
2018-10-11T11:40:50.222Z,6.78
2018-10-11T11:43:18.458Z,5.78
2018-10-11T11:45:46.752Z,7.28
2018-10-11T11:48:14.949Z,5.83
2018-10-11T11:50:43.203Z,6.33
2018-10-11T11:53:11.697Z,7.80
2018-10-11T11:55:39.866Z,5.78
2018-10-11T11:58:08.187Z,6.95
2018-10-11T12:00:36.367Z,4.22
2018-10-11T12:03:04.718Z,6.92
2018-10-11T12:05:32.949Z,5.60
2018-10-11T12:08:01.441Z,4.65
2018-10-11T12:10:29.736Z,3.85
2018-10-11T12:12:59.068Z,6.10
2018-10-11T12:15:28.785Z,3.65
2018-10-11T12:17:58.449Z,3.25
2018-10-11T12:20:27.962Z,4.75
2018-10-11T12:22:57.861Z,2.37
2018-10-11T12:25:26.561Z,2.37
2018-10-11T12:27:54.796Z,2.02
2018-10-11T12:30:23.018Z,2.45
2018-10-11T12:32:51.245Z,2.37
2018-10-11T12:35:20.757Z,1.60
2018-10-11T12:37:49.032Z,2.20
2018-10-11T12:40:17.511Z,2.52
2018-10-11T12:42:45.758Z,2.77
2018-10-11T12:45:14.927Z,5.87
2018-10-11T12:47:43.142Z,2.90
2018-10-11T12:50:12.284Z,5.75
2018-10-11T12:52:40.735Z,3.40
2018-10-11T12:55:09.283Z,4.17
2018-10-11T12:57:38.052Z,3.47
2018-10-11T13:00:07.929Z,3.62
2018-10-11T13:02:36.235Z,3.40
2018-10-11T13:05:04.573Z,3.65
2018-10-11T13:07:32.816Z,4.17
2018-10-11T13:10:01.658Z,4.42
2018-10-11T13:12:30.004Z,3.95
2018-10-11T13:14:58.568Z,4.90
2018-10-11T13:17:27.038Z,2.52
2018-10-11T13:19:55.510Z,2.75
2018-10-11T13:22:23.765Z,2.25
2018-10-11T13:24:52.005Z,2.83
2018-10-11T13:27:20.274Z,5.45
2018-10-11T13:29:48.778Z,2.87
2018-10-11T13:32:17.057Z,2.72
2018-10-11T13:34:45.417Z,2.52
2018-10-11T13:37:13.588Z,2.05
2018-10-11T13:39:46.081Z,2.10
2018-10-11T13:42:10.099Z,1.72
2018-10-11T13:44:38.350Z,1.87
2018-10-11T13:47:06.651Z,1.60
2018-10-11T13:49:34.898Z,3.33
2018-10-11T13:52:03.159Z,4.00
2018-10-11T13:54:31.440Z,2.27
2018-10-11T13:57:02.233Z,2.45
2018-10-11T13:59:28.329Z,2.25
2018-10-11T14:01:56.576Z,3.45
2018-10-11T14:04:25.399Z,1.90
2018-10-11T14:06:53.592Z,2.08
2018-10-11T14:09:21.830Z,2.58
2018-10-11T14:11:50.127Z,1.67
2018-10-11T14:14:18.354Z,2.30
2018-10-11T14:16:46.609Z,3.37
2018-10-11T14:19:14.852Z,2.45
2018-10-11T14:21:43.107Z,2.45
2018-10-11T14:24:11.428Z,1.90
2018-10-11T14:26:39.617Z,3.20
2018-10-11T14:29:07.859Z,2.08
2018-10-11T14:31:36.100Z,2.02
2018-10-11T14:34:04.366Z,1.65
2018-10-11T14:36:32.619Z,2.17
2018-10-11T14:39:00.870Z,2.17
2018-10-11T14:41:29.165Z,4.15
2018-10-11T14:43:57.395Z,3.42
2018-10-11T14:46:25.926Z,5.83
2018-10-11T14:48:54.688Z,3.67
2018-10-11T14:51:22.962Z,3.55
2018-10-11T14:53:53.993Z,3.85
2018-10-11T14:56:19.472Z,2.00
2018-10-11T14:58:47.702Z,2.12
2018-10-11T15:01:15.995Z,3.25
2018-10-11T15:03:44.252Z,1.80
2018-10-11T15:06:12.556Z,2.02
2018-10-11T15:08:40.808Z,3.75
2018-10-11T15:11:09.131Z,3.35
2018-10-11T15:13:37.464Z,1.55
2018-10-11T15:16:05.759Z,1.72
2018-10-11T15:18:34.189Z,1.67
2018-10-11T15:21:02.498Z,2.58
2018-10-11T15:23:30.844Z,2.22
2018-10-11T15:25:59.151Z,4.17
2018-10-11T15:28:27.474Z,1.77
2018-10-11T15:30:55.789Z,2.00
2018-10-11T15:33:24.075Z,1.40
2018-10-11T15:35:55.092Z,2.12
2018-10-11T15:38:23.354Z,1.60
2018-10-11T15:40:51.627Z,2.33
2018-10-11T15:43:20.037Z,3.17
2018-10-11T15:45:48.310Z,2.30
2018-10-11T15:48:16.734Z,3.08
2018-10-11T15:50:45.014Z,3.27
2018-10-11T15:53:14.201Z,4.62
2018-10-11T15:55:42.717Z,2.52
2018-10-11T15:58:11.007Z,6.42
2018-10-11T16:00:39.234Z,2.58
2018-10-11T16:03:07.641Z,3.22
2018-10-11T16:05:35.962Z,4.15
2018-10-11T16:08:04.164Z,4.22
2018-10-11T16:10:32.427Z,4.70
2018-10-11T16:13:00.750Z,4.50
2018-10-11T16:15:29.005Z,3.47
2018-10-11T16:17:57.289Z,3.98
2018-10-11T16:20:25.524Z,3.12
2018-10-11T16:22:53.779Z,4.15
2018-10-11T16:25:22.050Z,4.20
2018-10-11T16:27:50.363Z,3.47
2018-10-11T16:30:18.827Z,4.85
2018-10-11T16:32:47.086Z,2.72
2018-10-11T16:35:15.350Z,3.65
2018-10-11T16:37:43.584Z,3.87
2018-10-11T16:40:11.859Z,3.98
2018-10-11T16:42:40.101Z,5.33
2018-10-11T16:45:08.396Z,3.08
2018-10-11T16:47:36.764Z,3.58
2018-10-11T16:50:05.141Z,4.10
2018-10-11T16:52:33.703Z,3.50
2018-10-11T16:55:02.167Z,4.95
2018-10-11T16:57:30.400Z,4.15
2018-10-11T16:59:58.657Z,3.45
2018-10-11T17:02:26.962Z,3.70
2018-10-11T17:04:55.227Z,4.10
2018-10-11T17:07:23.935Z,4.25
2018-10-11T17:09:52.211Z,3.05
2018-10-11T17:12:20.531Z,4.70
2018-10-11T17:14:48.788Z,3.22
2018-10-11T17:17:17.040Z,4.40
2018-10-11T17:19:45.276Z,6.28
2018-10-11T17:22:13.510Z,5.17
2018-10-11T17:24:41.755Z,3.58
2018-10-11T17:27:09.999Z,5.08
2018-10-11T17:29:38.270Z,4.10
2018-10-11T17:32:07.041Z,5.28
2018-10-11T17:34:35.408Z,5.35
2018-10-11T17:37:04.058Z,4.90
2018-10-11T17:39:32.690Z,4.45
2018-10-11T17:42:00.977Z,5.50
2018-10-11T17:44:29.237Z,5.10
2018-10-11T17:46:57.496Z,4.80
2018-10-11T17:49:25.750Z,6.00
2018-10-11T17:51:54.093Z,6.40
2018-10-11T17:54:22.342Z,8.80
2018-10-11T17:56:50.692Z,6.92
2018-10-11T17:59:18.853Z,6.90
2018-10-11T18:01:47.574Z,9.00
2018-10-11T18:04:15.865Z,8.85
2018-10-11T18:06:44.084Z,7.70
2018-10-11T18:09:12.770Z,6.17
2018-10-11T18:11:41.006Z,6.35
2018-10-11T18:14:10.537Z,10.98
2018-10-11T18:16:38.807Z,7.37
2018-10-11T18:19:07.057Z,8.05
2018-10-11T18:21:35.520Z,7.42
2018-10-11T18:24:04.706Z,6.45
2018-10-11T18:26:34.960Z,6.30
2018-10-11T18:29:03.267Z,7.12
2018-10-11T18:31:31.667Z,9.08
2018-10-11T18:33:59.925Z,7.03
2018-10-11T18:36:28.199Z,6.17
2018-10-11T18:38:56.634Z,5.22
2018-10-11T18:41:24.998Z,8.03
2018-10-11T18:43:53.249Z,6.58
2018-10-11T18:46:21.477Z,7.05
2018-10-11T18:48:49.807Z,5.75
2018-10-11T18:51:18.139Z,5.78
2018-10-11T18:53:46.410Z,6.45
2018-10-11T18:56:14.674Z,6.72
2018-10-11T18:58:42.919Z,6.37
2018-10-11T19:01:11.288Z,6.70
2018-10-11T19:03:39.585Z,6.12
2018-10-11T19:06:07.869Z,8.43
2018-10-11T19:08:36.213Z,5.35
2018-10-11T19:11:04.489Z,7.20
2018-10-11T19:13:32.854Z,5.85
2018-10-11T19:16:02.146Z,5.65
2018-10-11T19:18:31.558Z,6.58
2018-10-11T19:20:59.912Z,8.68
2018-10-11T19:23:29.024Z,6.87
2018-10-11T19:25:57.291Z,6.90
2018-10-11T19:28:25.618Z,8.23
2018-10-11T19:30:54.159Z,7.03
2018-10-11T19:33:22.398Z,8.33
2018-10-11T19:35:51.033Z,11.55
2018-10-11T19:38:19.710Z,7.90
2018-10-11T19:40:48.026Z,8.38
2018-10-11T19:43:16.365Z,7.42
2018-10-11T19:45:44.748Z,8.18
2018-10-11T19:48:13.110Z,7.25
2018-10-11T19:50:41.360Z,9.15
2018-10-11T19:53:09.687Z,6.97
2018-10-11T19:55:37.976Z,5.97
2018-10-11T19:58:06.662Z,4.87
2018-10-11T20:00:34.970Z,4.33
2018-10-11T20:03:03.526Z,4.40
2018-10-11T20:05:31.821Z,4.85
2018-10-11T20:08:00.290Z,4.78
2018-10-11T20:10:28.558Z,4.35
2018-10-11T20:12:56.850Z,5.40
2018-10-11T20:15:25.178Z,5.25
2018-10-11T20:17:53.643Z,7.05
2018-10-11T20:20:21.945Z,6.03
2018-10-11T20:22:50.289Z,4.17
2018-10-11T20:25:18.626Z,5.58
2018-10-11T20:27:46.899Z,5.70
2018-10-11T20:30:15.234Z,7.28
2018-10-11T20:32:43.577Z,5.97
2018-10-11T20:35:11.890Z,5.83
2018-10-11T20:37:40.157Z,5.62
2018-10-11T20:40:08.413Z,5.17
2018-10-11T20:42:36.734Z,4.60
2018-10-11T20:45:05.190Z,6.17
2018-10-11T20:47:33.431Z,6.95
2018-10-11T20:50:02.203Z,6.05
2018-10-11T20:52:30.477Z,5.78
2018-10-11T20:54:58.792Z,6.60
2018-10-11T20:57:27.207Z,5.45
2018-10-11T20:59:55.429Z,5.70
2018-10-11T21:02:23.710Z,5.97
2018-10-11T21:04:52.032Z,5.45
2018-10-11T21:07:47.427Z,7.53
2018-10-11T21:10:49.431Z,6.42
2018-10-11T21:13:17.682Z,7.72
2018-10-11T21:15:45.982Z,5.40
2018-10-11T21:18:14.333Z,6.08
2018-10-11T21:20:42.588Z,5.90
2018-10-11T21:23:10.972Z,4.95
2018-10-11T21:25:39.237Z,5.42
2018-10-11T21:28:07.663Z,5.83
2018-10-11T21:30:35.923Z,5.50
2018-10-11T21:33:04.208Z,7.85
2018-10-11T21:35:32.516Z,6.75
2018-10-11T21:38:00.936Z,8.10
2018-10-11T21:40:29.183Z,4.80
2018-10-11T21:42:57.461Z,4.47
2018-10-11T21:45:25.781Z,5.87
2018-10-11T21:47:54.041Z,7.47
2018-10-11T21:50:22.316Z,4.92
2018-10-11T21:52:50.676Z,7.08
2018-10-11T21:55:18.845Z,8.10
2018-10-11T21:57:47.095Z,7.15
2018-10-11T22:00:15.381Z,7.50
2018-10-11T22:02:43.654Z,6.62
2018-10-11T22:05:11.937Z,9.45
2018-10-11T22:07:40.193Z,8.90
2018-10-11T22:10:08.448Z,5.17
2018-10-11T22:12:36.667Z,8.03
2018-10-11T22:15:05.357Z,7.50
2018-10-11T22:17:33.428Z,6.75
2018-10-11T22:20:01.684Z,9.83
2018-10-11T22:22:31.224Z,5.62
2018-10-11T22:24:59.466Z,4.97
2018-10-11T22:27:27.782Z,9.43
2018-10-11T22:29:56.052Z,6.03
2018-10-11T22:32:24.304Z,5.72
2018-10-11T22:34:52.595Z,5.10
2018-10-11T22:37:20.888Z,6.10
2018-10-11T22:39:49.115Z,7.08
2018-10-11T22:42:17.372Z,5.03
2018-10-11T22:44:45.660Z,5.78
2018-10-11T22:47:13.902Z,7.58
2018-10-11T22:49:42.158Z,7.55
2018-10-11T22:52:10.415Z,5.80
2018-10-11T22:54:38.645Z,5.30
2018-10-11T22:57:06.966Z,6.25
2018-10-11T22:59:35.260Z,7.97
2018-10-11T23:02:03.498Z,6.30
2018-10-11T23:04:31.758Z,7.40
2018-10-11T23:07:00.446Z,11.53
2018-10-11T23:09:28.815Z,6.05
2018-10-11T23:11:57.080Z,6.05
2018-10-11T23:14:25.767Z,11.30
2018-10-11T23:16:53.970Z,4.50
2018-10-11T23:19:22.243Z,4.92
2018-10-11T23:21:50.515Z,3.42
2018-10-11T23:24:18.802Z,2.95
2018-10-11T23:26:47.053Z,4.65
2018-10-11T23:29:15.744Z,2.75
2018-10-11T23:31:43.965Z,2.35
2018-10-11T23:34:12.198Z,2.22
2018-10-11T23:36:40.744Z,4.20
2018-10-11T23:39:10.561Z,4.08
2018-10-11T23:41:38.869Z,2.35
2018-10-11T23:44:07.154Z,3.10
2018-10-11T23:46:35.389Z,3.62
2018-10-11T23:49:03.612Z,3.95
2018-10-11T23:51:32.292Z,2.58
2018-10-11T23:54:07.218Z,2.65
2018-10-11T23:56:35.504Z,2.10
2018-10-11T23:59:03.746Z,2.58
